Denver, CO

11:07 AM MDT on September 19, 2014 (GMT -0600)
Buckley Air Force Base | Change Station
CLOSE
Current Station
Airport
Location: Aurora,
Elevation: 5663 ft
Nearby Weather Stations

Elev 5663 ft 39.71 °N, 104.76 °W | Updated 9 minutes ago

Clear
Clear
76 °F
Feels Like 76 °F
N
12
Wind Variable Wind from NE

Today
High -- | Low -- °F
--% Chance of Precip.
Yesterday
High -- | Low -- °F
Precip. -- in
6:44 AM 7:01 PM
Waning Crescent, 18% visible
Pressure 29.83 in
Visibility 10.0 miles
Clouds Few 11000 ft
Few 22000 ft
Dew Point 42 °F
Humidity 29%
Rainfall 0.00 in
Snow Depth 0 in , 187 in , 0 in
UV 6 out of 12
Pollen 7.50 out of 12
Ozone Good
PM2.5 Moderate
Flu Activity Not available.
METAR KBKF 191658Z 05010KT 10SM FEW110 FEW220 25/05 A3007 RMK AO2A SLP100 T02460053

More Conditions Fewer Conditions

Pressure 29.83 in
Visibility 10.0 miles
Clouds Few 11000 ft
Few 22000 ft
Dew Point 42 °F
Humidity 29%
Rainfall 0.00 in
Snow Depth 0 in , 187 in , 0 in
UV 6 out of 12
Pollen 7.50 out of 12
Ozone Good
PM2.5 Moderate
Flu Activity Not available.
METAR KBKF 191658Z 05010KT 10SM FEW110 FEW220 25/05 A3007 RMK AO2A SLP100 T02460053

More Conditions Fewer Conditions

10-Day Weather Forecast

Almanac

Astronomy

Sep. 19, 2014 Rise Set
Actual Time 6:44 AM MDT 7:01 PM MDT
Civil Twilight 6:17 AM MDT 7:28 PM MDT
Nautical Twilight 5:46 AM MDT 8:00 PM MDT
Astronomical Twilight 5:13 AM MDT 8:32 PM MDT
Moon 2:32 AM MDT 4:31 PM MDT
Length of Visible Light 13h 11m
Length of Day
12h 17m
Tomorrow will be 2m 35s shorter.
Waning Crescent, 18% of the Moon is Illuminated
Today
Waning Crescent
Sep 24
New
Oct 1
First Quarter
Oct 8
Full
Oct 15
Last Quarter

Today's Extremes

State Highs State Lows

Community

WunderPhotos

Upload Photos

1,754,655 photos uploaded!

Nearby

Air Quality

  Air Quality AQ Index Pollutant
Yesterday Moderate
OZONE
Yesterday Good
PM10
Current Moderate
PM2.5
Current Good
OZONE
Friday Moderate
OZONE
Friday Good
PM2.5

Snow Depth

Station Depth Elevation
Wolf Creek Summit 0 in 11000 ft
Independence Pass 187 in 10600 ft
Mesa Lakes 0 in 10000 ft
Arapaho Ridge 0 in 10960 ft
Never Summer 0 in 10280 ft

Earthquake Activity

City Distance Mag. Time & Date
No recent earthquake activity has been reported nearby.
Minimum magnitude displayed is 2.5.

Coastal Water Temperatures

Place Temperature
No Stations Reporting

Nearby Weather Stations